Bath, ME

8:16 PM EST on December 07, 2016 (GMT -0500)
Central Bath | | Change Station

Elev 108 ft 43.91 °N, 69.82 °W | Updated 9 minutes ago

Overcast
Overcast
32.2 °F
Feels Like 32 °F
N
0.0
Wind Variable Wind from SSW

Today
High -- | Low -- °F
--% Chance of Precip.
Yesterday
High -- | Low -- °F
Precip. -- in
Pressure 29.99 in
Visibility 10.0 miles
Clouds Mostly Cloudy 900 ft
Overcast 2700 ft
Windchill 32 °F
Dew Point 30 °F
Humidity 91%
Rainfall 0.02 in
Snow Depth Not available.
7:00 AM 4:01 PM
First Quarter, 58% visible
METAR KIWI 080053Z AUTO 00000KT 10SM BKN009 OVC027 01/M01 A2999 RMK AO2 SLP156 T00061011
Pressure 29.99 in
Visibility 10.0 miles
Clouds Mostly Cloudy 900 ft
Overcast 2700 ft
Windchill 32 °F
Dew Point 30 °F
Humidity 91%
Rainfall 0.02 in
Snow Depth Not available.
7:00 AM 4:01 PM
First Quarter, 58% visible
METAR KIWI 080053Z AUTO 00000KT 10SM BKN009 OVC027 01/M01 A2999 RMK AO2 SLP156 T00061011

10-Day Weather Forecast

Almanac

Astronomy

Dec. 07, 2016 Rise Set
Actual Time
Civil Twilight
Nautical Twilight
Astronomical Twilight
Moon
Length of Visible Light
Length of Day
Tomorrow will be .
, % of the Moon is Illuminated

Today's Extremes

State Highs State Lows

Community

WunderPhotos

Upload Photos

1,956,247 photos uploaded!

WunderBlog® & News

Nearby

Air Quality

  Air Quality AQ Index Pollutant
Not available.

Snow Depth

Station Depth Elevation

Earthquake Activity

City Distance Mag. Time & Date
Minimum magnitude displayed is 2.5.

Coastal Water Temperatures

Place Temperature

Stations

Nearby Weather Stations

Station Location Temp. Windchill Dew Point Humidity Wind Precip. Elev Updated Type
                   

Watches & Warnings

There are currently no watches in effect.